createdAt,value
2023-02-23T00:00:01.284Z,1008.48
2023-02-23T00:01:01.318Z,1008.49
2023-02-23T00:02:01.367Z,1008.48
2023-02-23T00:03:01.855Z,1008.46
2023-02-23T00:04:01.393Z,1008.46
2023-02-23T00:05:01.533Z,1008.47
2023-02-23T00:06:01.477Z,1008.50
2023-02-23T00:07:01.619Z,1008.50
2023-02-23T00:08:01.517Z,1008.50
2023-02-23T00:09:01.553Z,1008.50
2023-02-23T00:10:01.978Z,1008.49
2023-02-23T00:11:01.610Z,1008.47
2023-02-23T00:12:01.636Z,1008.49
2023-02-23T00:13:01.676Z,1008.47
2023-02-23T00:15:01.936Z,1008.47
2023-02-23T00:16:01.751Z,1008.47
2023-02-23T00:17:02.177Z,1008.49
2023-02-23T00:18:01.820Z,1008.51
2023-02-23T00:19:01.942Z,1008.47
2023-02-23T00:20:01.869Z,1008.49
2023-02-23T00:21:01.895Z,1008.45
2023-02-23T00:22:01.926Z,1008.51
2023-02-23T00:23:01.962Z,1008.51
2023-02-23T00:24:02.334Z,1008.50
2023-02-23T00:25:03.297Z,1008.47
2023-02-23T00:26:02.062Z,1008.44
2023-02-23T00:27:02.179Z,1008.44
2023-02-23T00:29:02.130Z,1008.41
2023-02-23T00:30:02.168Z,1008.43
2023-02-23T00:32:02.666Z,1008.40
2023-02-23T00:34:02.282Z,1008.39
2023-02-23T00:35:02.330Z,1008.38
2023-02-23T00:36:02.350Z,1008.40
2023-02-23T00:37:02.367Z,1008.39
2023-02-23T00:38:02.407Z,1008.34
2023-02-23T00:42:02.538Z,1008.34
2023-02-23T00:43:02.560Z,1008.34
2023-02-23T00:45:02.742Z,1008.32
2023-02-23T00:47:02.961Z,1008.37
2023-02-23T00:48:02.748Z,1008.36
2023-02-23T00:50:02.765Z,1008.30
2023-02-23T00:52:02.810Z,1008.30
2023-02-23T00:53:02.870Z,1008.31
2023-02-23T00:54:02.864Z,1008.31
2023-02-23T00:55:02.903Z,1008.27
2023-02-23T00:57:02.962Z,1008.27
2023-02-23T00:59:03.014Z,1008.27
2023-02-23T01:00:03.360Z,1008.32
2023-02-23T01:01:03.106Z,1008.31
2023-02-23T01:02:03.153Z,1008.31
2023-02-23T01:03:03.139Z,1008.33
2023-02-23T01:04:03.184Z,1008.29
2023-02-23T01:05:03.184Z,1008.29
2023-02-23T01:06:03.321Z,1008.29
2023-02-23T01:07:03.545Z,1008.31
2023-02-23T01:08:03.278Z,1008.31
2023-02-23T01:09:03.312Z,1008.30
2023-02-23T01:10:03.338Z,1008.32
2023-02-23T01:11:03.360Z,1008.30
2023-02-23T01:12:03.390Z,1008.30
2023-02-23T01:13:03.428Z,1008.29
2023-02-23T01:14:03.807Z,1008.30
2023-02-23T01:15:03.508Z,1008.28
2023-02-23T01:16:03.591Z,1008.31
2023-02-23T01:17:03.641Z,1008.32
2023-02-23T01:18:03.576Z,1008.30
2023-02-23T01:19:03.648Z,1008.33
2023-02-23T01:20:03.652Z,1008.25
2023-02-23T01:21:03.953Z,1008.27
2023-02-23T01:22:03.691Z,1008.29
2023-02-23T01:23:03.714Z,1008.29
2023-02-23T01:24:03.742Z,1008.26
2023-02-23T01:25:03.873Z,1008.26
2023-02-23T01:26:03.808Z,1008.26
2023-02-23T01:27:03.890Z,1008.25
2023-02-23T01:28:05.156Z,1008.32
2023-02-23T01:29:03.892Z,1008.27
2023-02-23T01:30:03.921Z,1008.29
2023-02-23T01:31:03.983Z,1008.29
2023-02-23T01:32:05.047Z,1008.28
2023-02-23T01:33:04.000Z,1008.28
2023-02-23T01:34:04.028Z,1008.28
2023-02-23T01:35:04.358Z,1008.27
2023-02-23T01:36:04.104Z,1008.28
2023-02-23T01:37:04.128Z,1008.28
2023-02-23T01:38:04.156Z,1008.26
2023-02-23T01:39:04.169Z,1008.24
2023-02-23T01:40:04.207Z,1008.27
2023-02-23T01:41:04.234Z,1008.31
2023-02-23T01:42:04.586Z,1008.28
2023-02-23T01:43:04.289Z,1008.28
2023-02-23T01:44:04.334Z,1008.29
2023-02-23T01:45:04.353Z,1008.28
2023-02-23T01:46:04.491Z,1008.30
2023-02-23T01:47:04.421Z,1008.29
2023-02-23T01:48:04.437Z,1008.33
2023-02-23T01:49:04.787Z,1008.32
2023-02-23T01:50:04.499Z,1008.32
2023-02-23T01:51:04.708Z,1008.32
2023-02-23T01:52:04.579Z,1008.32
2023-02-23T01:53:04.586Z,1008.29
2023-02-23T01:54:04.639Z,1008.31
2023-02-23T01:55:04.711Z,1008.27
2023-02-23T01:56:04.990Z,1008.29
2023-02-23T01:58:04.737Z,1008.31
2023-02-23T01:59:04.813Z,1008.32
2023-02-23T02:00:04.800Z,1008.28
2023-02-23T02:01:04.830Z,1008.29
2023-02-23T02:02:05.219Z,1008.28
2023-02-23T02:03:04.876Z,1008.29
2023-02-23T02:04:04.906Z,1008.31
2023-02-23T02:05:05.110Z,1008.31
2023-02-23T02:06:05.023Z,1008.31
2023-02-23T02:07:04.989Z,1008.30
2023-02-23T02:08:05.373Z,1008.32
2023-02-23T02:09:05.057Z,1008.30
2023-02-23T02:10:05.086Z,1008.26
2023-02-23T02:11:05.107Z,1008.29
2023-02-23T02:13:05.305Z,1008.22
2023-02-23T02:14:05.698Z,1008.27
2023-02-23T02:15:05.489Z,1008.25
2023-02-23T02:16:05.369Z,1008.22
2023-02-23T02:17:05.368Z,1008.22
2023-02-23T02:18:05.315Z,1008.21
2023-02-23T02:19:05.360Z,1008.21
2023-02-23T02:20:05.703Z,1008.18
2023-02-23T02:21:05.706Z,1008.18
2023-02-23T02:22:05.434Z,1008.18
2023-02-23T02:24:05.575Z,1008.13
2023-02-23T02:25:05.558Z,1008.13
2023-02-23T02:26:05.551Z,1008.16
2023-02-23T02:28:05.606Z,1008.16
2023-02-23T02:29:05.638Z,1008.14
2023-02-23T02:30:05.699Z,1008.14
2023-02-23T02:31:05.731Z,1008.15
2023-02-23T02:32:05.860Z,1008.16
2023-02-23T02:33:05.772Z,1008.17
2023-02-23T02:34:05.778Z,1008.16
2023-02-23T02:35:06.112Z,1008.16
2023-02-23T02:36:05.838Z,1008.11
2023-02-23T02:39:05.926Z,1008.13
2023-02-23T02:40:05.971Z,1008.15
2023-02-23T02:42:06.320Z,1008.12
2023-02-23T02:43:06.059Z,1008.11
2023-02-23T02:44:06.085Z,1008.11
2023-02-23T02:45:06.102Z,1008.10
2023-02-23T02:46:06.175Z,1008.07
2023-02-23T02:47:06.164Z,1008.13
2023-02-23T02:48:06.199Z,1008.12
2023-02-23T02:49:06.522Z,1008.10
2023-02-23T02:50:06.257Z,1008.09
2023-02-23T02:51:06.287Z,1008.08
2023-02-23T02:52:06.316Z,1008.07
2023-02-23T02:55:06.397Z,1008.11
2023-02-23T02:56:06.807Z,1008.09
2023-02-23T02:57:06.454Z,1008.09
2023-02-23T02:58:06.499Z,1008.09
2023-02-23T02:59:06.523Z,1008.08
2023-02-23T03:00:06.573Z,1008.09
2023-02-23T03:01:06.568Z,1008.08
2023-02-23T03:02:06.656Z,1008.05
2023-02-23T03:03:06.947Z,1008.09
2023-02-23T03:04:06.668Z,1008.09
2023-02-23T03:05:06.756Z,1008.09
2023-02-23T03:06:06.761Z,1008.08
2023-02-23T03:07:06.753Z,1008.10
2023-02-23T03:08:06.777Z,1008.09
2023-02-23T03:09:06.855Z,1008.11
2023-02-23T03:10:07.156Z,1008.09
2023-02-23T03:11:06.867Z,1008.08
2023-02-23T03:15:07.009Z,1008.09
2023-02-23T03:16:07.019Z,1008.12
2023-02-23T03:17:07.378Z,1008.09
2023-02-23T03:18:07.068Z,1008.10
2023-02-23T03:19:07.103Z,1008.07
2023-02-23T03:20:07.127Z,1008.10
2023-02-23T03:21:07.176Z,1008.09
2023-02-23T03:22:07.191Z,1008.13
2023-02-23T03:23:07.215Z,1008.10
2023-02-23T03:24:07.253Z,1008.13
2023-02-23T03:25:07.288Z,1008.15
2023-02-23T03:26:07.322Z,1008.13
2023-02-23T03:27:07.355Z,1008.11
2023-02-23T03:29:07.397Z,1008.17
2023-02-23T03:30:07.768Z,1008.13
2023-02-23T03:31:07.478Z,1008.18
2023-02-23T03:32:07.611Z,1008.20
2023-02-23T03:33:07.511Z,1008.16
2023-02-23T03:34:07.537Z,1008.21
2023-02-23T03:35:07.562Z,1008.19
2023-02-23T03:36:07.902Z,1008.18
2023-02-23T03:37:07.624Z,1008.21
2023-02-23T03:38:07.661Z,1008.16
2023-02-23T03:39:07.699Z,1008.18
2023-02-23T03:40:07.711Z,1008.17
2023-02-23T03:41:07.751Z,1008.14
2023-02-23T03:42:08.122Z,1008.15
2023-02-23T03:43:07.800Z,1008.16
2023-02-23T03:44:07.832Z,1008.16
2023-02-23T03:45:07.956Z,1008.13
2023-02-23T03:46:07.885Z,1008.15
2023-02-23T03:47:08.045Z,1008.15
2023-02-23T03:48:08.245Z,1008.17
2023-02-23T03:49:07.974Z,1008.14
2023-02-23T03:50:08.031Z,1008.18
2023-02-23T03:51:08.038Z,1008.19
2023-02-23T03:52:08.073Z,1008.20
2023-02-23T03:53:08.094Z,1008.24
2023-02-23T03:54:08.118Z,1008.21
2023-02-23T03:55:08.167Z,1008.26
2023-02-23T03:56:08.174Z,1008.25
2023-02-23T03:57:08.206Z,1008.25
2023-02-23T03:58:08.241Z,1008.24
2023-02-23T03:59:08.256Z,1008.26
2023-02-23T04:00:08.304Z,1008.25
2023-02-23T04:01:08.620Z,1008.25
2023-02-23T04:02:08.362Z,1008.27
2023-02-23T04:03:08.445Z,1008.27
2023-02-23T04:04:08.410Z,1008.28
2023-02-23T04:05:08.443Z,1008.27
2023-02-23T04:06:08.472Z,1008.28
2023-02-23T04:07:08.511Z,1008.29
2023-02-23T04:08:08.823Z,1008.32
2023-02-23T04:09:08.556Z,1008.30
2023-02-23T04:10:08.630Z,1008.33
2023-02-23T04:11:08.614Z,1008.30
2023-02-23T04:12:08.655Z,1008.38
2023-02-23T04:13:08.670Z,1008.31
2023-02-23T04:14:08.697Z,1008.32
2023-02-23T04:16:09.173Z,1008.34
2023-02-23T04:17:08.783Z,1008.30
2023-02-23T04:18:08.812Z,1008.33
2023-02-23T04:19:08.931Z,1008.37
2023-02-23T04:20:08.873Z,1008.34
2023-02-23T04:21:08.996Z,1008.41
2023-02-23T04:23:09.018Z,1008.39
2023-02-23T04:24:09.303Z,1008.41
2023-02-23T04:26:09.158Z,1008.42
2023-02-23T04:27:09.083Z,1008.40
2023-02-23T04:29:09.147Z,1008.39
2023-02-23T04:30:09.160Z,1008.38
2023-02-23T04:32:09.356Z,1008.42
2023-02-23T04:33:09.249Z,1008.43
2023-02-23T04:34:09.280Z,1008.43
2023-02-23T04:35:09.345Z,1008.41
2023-02-23T04:36:09.337Z,1008.43
2023-02-23T04:37:09.373Z,1008.41
2023-02-23T04:39:09.732Z,1008.40
2023-02-23T04:40:09.468Z,1008.39
2023-02-23T04:41:09.496Z,1008.42
2023-02-23T04:42:09.605Z,1008.45
2023-02-23T04:44:09.596Z,1008.39
2023-02-23T04:45:09.622Z,1008.42
2023-02-23T04:46:09.971Z,1008.44
2023-02-23T04:49:09.721Z,1008.44
2023-02-23T04:50:09.749Z,1008.45
2023-02-23T04:51:09.793Z,1008.47
2023-02-23T04:52:09.906Z,1008.48
2023-02-23T04:53:10.147Z,1008.42
2023-02-23T04:54:09.875Z,1008.46
2023-02-23T04:55:09.901Z,1008.44
2023-02-23T04:56:09.921Z,1008.45
2023-02-23T04:57:09.979Z,1008.46
2023-02-23T04:58:09.988Z,1008.46
2023-02-23T04:59:10.019Z,1008.39
2023-02-23T05:00:10.444Z,1008.40
2023-02-23T05:01:10.301Z,1008.40
2023-02-23T05:02:10.175Z,1008.43
2023-02-23T05:03:10.119Z,1008.40
2023-02-23T05:04:10.175Z,1008.42
2023-02-23T05:05:10.251Z,1008.41
2023-02-23T05:06:10.202Z,1008.47
2023-02-23T05:07:10.356Z,1008.43
2023-02-23T05:08:10.266Z,1008.43
2023-02-23T05:09:10.303Z,1008.49
2023-02-23T05:10:10.335Z,1008.50
2023-02-23T05:11:10.377Z,1008.54
2023-02-23T05:12:10.396Z,1008.49
2023-02-23T05:13:10.762Z,1008.48
2023-02-23T05:14:10.434Z,1008.53
2023-02-23T05:15:10.575Z,1008.54
2023-02-23T05:16:10.549Z,1008.54
2023-02-23T05:17:10.548Z,1008.55
2023-02-23T05:18:10.556Z,1008.55
2023-02-23T05:19:10.593Z,1008.57
2023-02-23T05:20:10.916Z,1008.57
2023-02-23T05:21:10.645Z,1008.58
2023-02-23T05:22:10.669Z,1008.57
2023-02-23T05:23:10.718Z,1008.61
2023-02-23T05:24:10.732Z,1008.60
2023-02-23T05:25:10.764Z,1008.61
2023-02-23T05:26:10.790Z,1008.62
2023-02-23T05:27:11.116Z,1008.61
2023-02-23T05:28:10.953Z,1008.64
2023-02-23T05:29:10.877Z,1008.63
2023-02-23T05:30:10.914Z,1008.63
2023-02-23T05:31:11.225Z,1008.63
2023-02-23T05:32:11.130Z,1008.65
2023-02-23T05:33:11.018Z,1008.67
2023-02-23T05:34:11.124Z,1008.65
2023-02-23T05:35:11.071Z,1008.67
2023-02-23T05:37:11.116Z,1008.63
2023-02-23T05:38:11.150Z,1008.66
2023-02-23T05:39:11.761Z,1008.67
2023-02-23T05:44:11.362Z,1008.64
2023-02-23T05:45:11.337Z,1008.64
2023-02-23T05:46:11.442Z,1008.67
2023-02-23T05:47:11.418Z,1008.64
2023-02-23T05:48:11.417Z,1008.65
2023-02-23T05:49:12.811Z,1008.66
2023-02-23T05:50:11.591Z,1008.67
2023-02-23T05:51:11.529Z,1008.65
2023-02-23T05:52:11.539Z,1008.66
2023-02-23T05:53:11.574Z,1008.66
2023-02-23T05:54:12.065Z,1008.68
2023-02-23T05:55:11.642Z,1008.68
2023-02-23T05:56:11.648Z,1008.70
2023-02-23T05:57:11.774Z,1008.71
2023-02-23T05:58:11.707Z,1008.74
2023-02-23T06:00:12.075Z,1008.70
2023-02-23T06:01:11.797Z,1008.69
2023-02-23T06:02:11.881Z,1008.72
2023-02-23T06:03:11.876Z,1008.72
2023-02-23T06:04:11.884Z,1008.73
2023-02-23T06:05:11.912Z,1008.74
2023-02-23T06:07:11.972Z,1008.71
2023-02-23T06:08:12.011Z,1008.71
2023-02-23T06:09:12.031Z,1008.74
2023-02-23T06:10:12.051Z,1008.72
2023-02-23T06:11:12.109Z,1008.73
2023-02-23T06:12:12.121Z,1008.72
2023-02-23T06:13:12.139Z,1008.75
2023-02-23T06:14:12.213Z,1008.74
2023-02-23T06:15:12.201Z,1008.78
2023-02-23T06:17:12.273Z,1008.78
2023-02-23T06:18:12.288Z,1008.79
2023-02-23T06:19:12.633Z,1008.78
2023-02-23T06:22:12.408Z,1008.77
2023-02-23T06:23:12.481Z,1008.77
2023-02-23T06:24:12.471Z,1008.82
2023-02-23T06:26:12.917Z,1008.79
2023-02-23T06:27:12.566Z,1008.81
2023-02-23T06:28:12.589Z,1008.81
2023-02-23T06:29:12.616Z,1008.79
2023-02-23T06:30:12.637Z,1008.81
2023-02-23T06:31:12.790Z,1008.86
2023-02-23T06:32:12.862Z,1008.87
2023-02-23T06:33:13.089Z,1008.88
2023-02-23T06:34:12.742Z,1008.88
2023-02-23T06:35:12.786Z,1008.85
2023-02-23T06:36:12.811Z,1008.93
2023-02-23T06:37:12.847Z,1008.88
2023-02-23T06:39:12.892Z,1008.92
2023-02-23T06:44:13.057Z,1009.00
2023-02-23T06:45:13.065Z,1008.94
2023-02-23T06:46:13.425Z,1008.97
2023-02-23T06:47:13.169Z,1008.99
2023-02-23T06:49:16.178Z,1009.02
2023-02-23T06:50:13.216Z,1008.98
2023-02-23T06:52:13.383Z,1009.04
2023-02-23T06:53:13.599Z,1009.02
2023-02-23T06:54:13.334Z,1009.06
2023-02-23T06:55:13.366Z,1009.08
2023-02-23T06:56:13.384Z,1009.13
2023-02-23T06:57:13.410Z,1009.12
2023-02-23T06:58:13.434Z,1009.15
2023-02-23T06:59:13.765Z,1009.16
2023-02-23T07:00:13.579Z,1009.15
2023-02-23T07:01:13.537Z,1009.25
2023-02-23T07:02:13.569Z,1009.24
2023-02-23T07:03:13.584Z,1009.26
2023-02-23T07:04:16.355Z,1009.29
2023-02-23T07:05:13.941Z,1009.26
2023-02-23T07:06:13.670Z,1009.26
2023-02-23T07:07:13.710Z,1009.28
2023-02-23T07:08:13.730Z,1009.31
2023-02-23T07:09:13.766Z,1009.33
2023-02-23T07:10:13.787Z,1009.31
2023-02-23T07:11:13.814Z,1009.36
2023-02-23T07:12:13.865Z,1009.36
2023-02-23T07:13:13.869Z,1009.37
2023-02-23T07:14:21.495Z,1009.40
2023-02-23T07:16:14.055Z,1009.39
2023-02-23T07:17:14.338Z,1009.38
2023-02-23T07:18:14.011Z,1009.40
2023-02-23T07:19:14.065Z,1009.42
2023-02-23T07:20:14.072Z,1009.40
2023-02-23T07:21:14.106Z,1009.42
2023-02-23T07:22:14.121Z,1009.41
2023-02-23T07:23:14.169Z,1009.44
2023-02-23T07:24:14.489Z,1009.44
2023-02-23T07:25:14.215Z,1009.43
2023-02-23T07:26:14.243Z,1009.47
2023-02-23T07:28:14.355Z,1009.50
2023-02-23T07:29:14.337Z,1009.49
2023-02-23T07:30:14.371Z,1009.47
2023-02-23T07:31:14.740Z,1009.48
2023-02-23T07:33:14.558Z,1009.50
2023-02-23T07:34:15.011Z,1009.53
2023-02-23T07:35:14.553Z,1009.54
2023-02-23T07:36:14.529Z,1009.54
2023-02-23T07:37:14.681Z,1009.55
2023-02-23T07:38:14.907Z,1009.56
2023-02-23T07:39:14.619Z,1009.57
2023-02-23T07:40:14.647Z,1009.55
2023-02-23T07:41:14.776Z,1009.61
2023-02-23T07:42:14.731Z,1009.57
2023-02-23T07:44:14.777Z,1009.61
2023-02-23T07:45:15.259Z,1009.57
2023-02-23T07:46:15.214Z,1009.61
2023-02-23T07:47:14.860Z,1009.64
2023-02-23T07:48:14.885Z,1009.62
2023-02-23T07:49:15.135Z,1009.66
2023-02-23T07:50:14.933Z,1009.61
2023-02-23T07:51:15.042Z,1009.65
2023-02-23T07:52:15.296Z,1009.63
2023-02-23T07:53:15.143Z,1009.64
2023-02-23T07:54:15.127Z,1009.65
2023-02-23T07:55:15.088Z,1009.68
2023-02-23T07:57:15.289Z,1009.68
2023-02-23T07:58:15.170Z,1009.71
2023-02-23T07:59:15.497Z,1009.70
2023-02-23T08:00:15.285Z,1009.68
2023-02-23T08:01:15.451Z,1009.72
2023-02-23T08:02:15.277Z,1009.71
2023-02-23T08:04:15.367Z,1009.72
2023-02-23T08:05:15.441Z,1009.76
2023-02-23T08:06:15.709Z,1009.71
2023-02-23T08:07:15.534Z,1009.73
2023-02-23T08:08:15.459Z,1009.77
2023-02-23T08:09:15.487Z,1009.76
2023-02-23T08:10:15.516Z,1009.78
2023-02-23T08:11:15.542Z,1009.76
2023-02-23T08:12:15.899Z,1009.80
2023-02-23T08:14:15.632Z,1009.81
2023-02-23T08:15:15.658Z,1009.84
2023-02-23T08:16:15.705Z,1009.86
2023-02-23T08:17:15.737Z,1009.85
2023-02-23T08:18:16.089Z,1009.87
2023-02-23T08:20:15.834Z,1009.87
2023-02-23T08:21:16.066Z,1009.88
2023-02-23T08:22:15.922Z,1009.90
2023-02-23T08:23:15.885Z,1009.92
2023-02-23T08:24:16.217Z,1009.92
2023-02-23T08:25:16.305Z,1009.92
2023-02-23T08:26:15.976Z,1009.92
2023-02-23T08:27:16.007Z,1009.92
2023-02-23T08:28:16.035Z,1009.90
2023-02-23T08:29:16.178Z,1009.95
2023-02-23T08:30:16.146Z,1009.93
2023-02-23T08:32:16.233Z,1009.93
2023-02-23T08:33:16.179Z,1009.95
2023-02-23T08:34:16.237Z,1009.95
2023-02-23T08:35:16.236Z,1009.99
2023-02-23T08:36:16.262Z,1010.00
2023-02-23T08:37:16.417Z,1009.97
2023-02-23T08:38:16.347Z,1010.03
2023-02-23T08:39:16.376Z,1010.02
2023-02-23T08:40:16.433Z,1010.03
2023-02-23T08:42:16.508Z,1010.04
2023-02-23T08:43:16.767Z,1010.06
2023-02-23T08:44:16.487Z,1010.07
2023-02-23T08:45:16.617Z,1010.07
2023-02-23T08:46:16.590Z,1010.04
2023-02-23T08:47:16.642Z,1010.04
2023-02-23T08:48:16.613Z,1010.12
2023-02-23T08:49:16.748Z,1010.12
2023-02-23T08:50:17.022Z,1010.13
2023-02-23T08:51:16.979Z,1010.12
2023-02-23T08:52:16.728Z,1010.15
2023-02-23T08:53:16.987Z,1010.13
2023-02-23T08:54:16.777Z,1010.15
2023-02-23T08:55:16.821Z,1010.16
2023-02-23T08:56:16.936Z,1010.14
2023-02-23T08:58:17.444Z,1010.15
2023-02-23T08:59:16.924Z,1010.16
2023-02-23T09:00:17.075Z,1010.17
2023-02-23T09:01:17.311Z,1010.16
2023-02-23T09:02:16.999Z,1010.17
2023-02-23T09:03:17.441Z,1010.19
2023-02-23T09:04:17.077Z,1010.17
2023-02-23T09:05:17.343Z,1010.16
2023-02-23T09:07:17.250Z,1010.18
2023-02-23T09:08:17.194Z,1010.19
2023-02-23T09:09:17.710Z,1010.22
2023-02-23T09:10:17.246Z,1010.24
2023-02-23T09:12:17.292Z,1010.21
2023-02-23T09:13:17.434Z,1010.24
2023-02-23T09:14:17.351Z,1010.22
2023-02-23T09:15:17.676Z,1010.21
2023-02-23T09:16:17.496Z,1010.22
2023-02-23T09:17:18.131Z,1010.27
2023-02-23T09:18:17.512Z,1010.24
2023-02-23T09:19:17.775Z,1010.23
2023-02-23T09:20:17.529Z,1010.23
2023-02-23T09:21:17.861Z,1010.27
2023-02-23T09:22:17.878Z,1010.27
2023-02-23T09:23:17.668Z,1010.22
2023-02-23T09:24:17.685Z,1010.26
2023-02-23T09:25:17.907Z,1010.28
2023-02-23T09:26:18.257Z,1010.32
2023-02-23T09:27:17.739Z,1010.32
2023-02-23T09:28:17.760Z,1010.31
2023-02-23T09:29:18.087Z,1010.29
2023-02-23T09:30:17.970Z,1010.32
2023-02-23T09:31:18.301Z,1010.32
2023-02-23T09:32:18.054Z,1010.33
2023-02-23T09:33:17.904Z,1010.35
2023-02-23T09:34:17.938Z,1010.33
2023-02-23T09:35:18.046Z,1010.32
2023-02-23T09:36:18.298Z,1010.35
2023-02-23T09:37:18.021Z,1010.36
2023-02-23T09:38:18.042Z,1010.41
2023-02-23T09:39:24.079Z,1010.37
2023-02-23T09:40:18.436Z,1010.41
2023-02-23T09:41:18.477Z,1010.42
2023-02-23T09:42:18.161Z,1010.43
2023-02-23T09:43:18.186Z,1010.45
2023-02-23T09:44:18.236Z,1010.48
2023-02-23T09:45:18.253Z,1010.44
2023-02-23T09:46:18.414Z,1010.44
2023-02-23T09:47:18.307Z,1010.45
2023-02-23T09:48:18.337Z,1010.48
2023-02-23T09:49:18.727Z,1010.48
2023-02-23T09:50:18.404Z,1010.50
2023-02-23T09:51:18.844Z,1010.51
2023-02-23T09:52:18.925Z,1010.52
2023-02-23T09:53:18.489Z,1010.53
2023-02-23T09:54:18.650Z,1010.53
2023-02-23T09:55:18.544Z,1010.58
2023-02-23T09:56:18.873Z,1010.55
2023-02-23T09:57:18.721Z,1010.58
2023-02-23T09:58:18.644Z,1010.58
2023-02-23T09:59:18.742Z,1010.61
2023-02-23T10:00:18.830Z,1010.64
2023-02-23T10:01:18.996Z,1010.63
2023-02-23T10:02:18.742Z,1010.64
2023-02-23T10:03:19.422Z,1010.63
2023-02-23T10:04:18.804Z,1010.67
2023-02-23T10:05:18.879Z,1010.66
2023-02-23T10:06:18.851Z,1010.67
2023-02-23T10:07:18.878Z,1010.70
2023-02-23T10:08:18.914Z,1010.69
2023-02-23T10:10:19.319Z,1010.71
2023-02-23T10:11:19.434Z,1010.72
2023-02-23T10:12:19.038Z,1010.73
2023-02-23T10:13:19.081Z,1010.73
2023-02-23T10:14:19.120Z,1010.75
2023-02-23T10:15:19.112Z,1010.78
2023-02-23T10:17:19.210Z,1010.75
2023-02-23T10:18:19.498Z,1010.78
2023-02-23T10:19:19.238Z,1010.79
2023-02-23T10:20:19.293Z,1010.78
2023-02-23T10:21:19.664Z,1010.80
2023-02-23T10:22:19.321Z,1010.78
2023-02-23T10:23:19.367Z,1010.81
2023-02-23T10:24:19.438Z,1010.80
2023-02-23T10:25:19.820Z,1010.82
2023-02-23T10:26:19.756Z,1010.83
2023-02-23T10:27:19.470Z,1010.83
2023-02-23T10:28:19.484Z,1010.82
2023-02-23T10:29:19.545Z,1010.81
2023-02-23T10:30:19.547Z,1010.83
2023-02-23T10:31:20.030Z,1010.84
2023-02-23T10:32:20.002Z,1010.84
2023-02-23T10:33:19.736Z,1010.85
2023-02-23T10:34:21.805Z,1010.87
2023-02-23T10:35:19.694Z,1010.86
2023-02-23T10:36:19.744Z,1010.90
2023-02-23T10:38:19.785Z,1010.90
2023-02-23T10:39:20.121Z,1010.89
2023-02-23T10:40:19.903Z,1010.90
2023-02-23T10:41:20.251Z,1010.94
2023-02-23T10:42:19.896Z,1010.94
2023-02-23T10:43:19.936Z,1010.93
2023-02-23T10:44:19.958Z,1010.94
2023-02-23T10:45:20.010Z,1010.94
2023-02-23T10:46:20.412Z,1010.94
2023-02-23T10:47:20.116Z,1010.97
2023-02-23T10:48:20.158Z,1010.97
2023-02-23T10:49:20.092Z,1010.95
2023-02-23T10:50:20.196Z,1010.91
2023-02-23T10:51:20.554Z,1010.91
2023-02-23T10:52:20.188Z,1010.92
2023-02-23T10:53:20.535Z,1010.94
2023-02-23T10:54:20.241Z,1010.93
2023-02-23T10:56:20.294Z,1010.94
2023-02-23T10:57:20.682Z,1010.91
2023-02-23T10:58:20.387Z,1010.95
2023-02-23T10:59:20.775Z,1010.90
2023-02-23T11:00:20.441Z,1010.92
2023-02-23T11:01:20.881Z,1010.95
2023-02-23T11:03:20.502Z,1010.93
2023-02-23T11:04:20.659Z,1010.97
2023-02-23T11:05:20.923Z,1010.95
2023-02-23T11:06:20.600Z,1010.97
2023-02-23T11:07:20.612Z,1010.96
2023-02-23T11:08:20.893Z,1010.94
2023-02-23T11:09:24.804Z,1010.95
2023-02-23T11:10:20.754Z,1010.91
2023-02-23T11:11:21.554Z,1010.96
2023-02-23T11:12:20.861Z,1010.94
2023-02-23T11:13:21.060Z,1010.94
2023-02-23T11:14:21.066Z,1010.95
2023-02-23T11:15:21.218Z,1010.96
2023-02-23T11:16:21.678Z,1010.94
2023-02-23T11:17:20.945Z,1010.94
2023-02-23T11:18:21.271Z,1010.96
2023-02-23T11:19:20.973Z,1010.94
2023-02-23T11:20:20.996Z,1010.91
2023-02-23T11:21:21.316Z,1010.98
2023-02-23T11:22:21.090Z,1010.96
2023-02-23T11:23:21.152Z,1010.92
2023-02-23T11:24:21.145Z,1010.96
2023-02-23T11:25:21.441Z,1010.95
2023-02-23T11:26:21.177Z,1010.96
2023-02-23T11:27:21.205Z,1010.94
2023-02-23T11:28:21.222Z,1010.98
2023-02-23T11:29:21.281Z,1010.91
2023-02-23T11:30:21.269Z,1010.95
2023-02-23T11:31:21.957Z,1010.90
2023-02-23T11:32:21.570Z,1010.91
2023-02-23T11:33:21.432Z,1010.90
2023-02-23T11:34:21.410Z,1010.95
2023-02-23T11:35:21.447Z,1010.94
2023-02-23T11:36:21.449Z,1010.88
2023-02-23T11:38:21.509Z,1010.93
2023-02-23T11:39:21.834Z,1010.96
2023-02-23T11:40:21.558Z,1010.94
2023-02-23T11:41:21.844Z,1010.94
2023-02-23T11:42:21.857Z,1010.93
2023-02-23T11:43:21.653Z,1010.90
2023-02-23T11:44:21.690Z,1010.90
2023-02-23T11:45:21.708Z,1010.88
2023-02-23T11:46:22.139Z,1010.87
2023-02-23T11:48:21.807Z,1010.86
2023-02-23T11:50:21.947Z,1010.83
2023-02-23T11:51:21.880Z,1010.84
2023-02-23T11:53:22.164Z,1010.82
2023-02-23T11:54:21.966Z,1010.79
2023-02-23T11:55:22.007Z,1010.83
2023-02-23T11:56:22.197Z,1010.84
2023-02-23T11:57:22.058Z,1010.81
2023-02-23T11:58:22.093Z,1010.79
2023-02-23T11:59:22.115Z,1010.78
2023-02-23T12:01:22.178Z,1010.84
2023-02-23T12:02:22.205Z,1010.85
2023-02-23T12:03:22.267Z,1010.81
2023-02-23T12:04:22.260Z,1010.84
2023-02-23T12:05:22.285Z,1010.87
2023-02-23T12:06:22.734Z,1010.83
2023-02-23T12:07:22.341Z,1010.82
2023-02-23T12:11:22.759Z,1010.82
2023-02-23T12:12:22.491Z,1010.86
2023-02-23T12:13:22.513Z,1010.83
2023-02-23T12:14:22.556Z,1010.80
2023-02-23T12:16:22.860Z,1010.82
2023-02-23T12:17:22.741Z,1010.81
2023-02-23T12:18:22.660Z,1010.81
2023-02-23T12:19:22.687Z,1010.83
2023-02-23T12:20:22.729Z,1010.83
2023-02-23T12:21:22.751Z,1010.83
2023-02-23T12:22:22.795Z,1010.84
2023-02-23T12:23:23.104Z,1010.80
2023-02-23T12:24:22.854Z,1010.84
2023-02-23T12:25:22.867Z,1010.85
2023-02-23T12:27:22.979Z,1010.85
2023-02-23T12:28:22.961Z,1010.83
2023-02-23T12:29:23.004Z,1010.85
2023-02-23T12:30:23.302Z,1010.82
2023-02-23T12:31:23.073Z,1010.82
2023-02-23T12:32:23.226Z,1010.83
2023-02-23T12:34:23.126Z,1010.83
2023-02-23T12:35:23.157Z,1010.84
2023-02-23T12:36:23.206Z,1010.86
2023-02-23T12:37:23.500Z,1010.83
2023-02-23T12:38:23.308Z,1010.82
2023-02-23T12:39:23.256Z,1010.80
2023-02-23T12:40:23.316Z,1010.83
2023-02-23T12:42:23.348Z,1010.83
2023-02-23T12:43:23.392Z,1010.82
2023-02-23T12:44:23.403Z,1010.85
2023-02-23T12:45:23.435Z,1010.82
2023-02-23T12:46:23.941Z,1010.87
2023-02-23T12:47:23.488Z,1010.87
2023-02-23T12:49:23.558Z,1010.88
2023-02-23T12:50:23.888Z,1010.91
2023-02-23T12:52:23.649Z,1010.96
2023-02-23T12:53:23.660Z,1010.90
2023-02-23T12:54:23.783Z,1010.94
2023-02-23T12:55:23.726Z,1010.91
2023-02-23T12:56:23.755Z,1010.90
2023-02-23T12:57:24.084Z,1010.93
2023-02-23T12:58:23.801Z,1010.93
2023-02-23T12:59:23.843Z,1010.88
2023-02-23T13:00:23.857Z,1010.92
2023-02-23T13:01:23.912Z,1010.87
2023-02-23T13:02:23.951Z,1010.88
2023-02-23T13:03:23.962Z,1010.83
2023-02-23T13:04:24.278Z,1010.81
2023-02-23T13:05:24.011Z,1010.85
2023-02-23T13:06:24.050Z,1010.86
2023-02-23T13:07:24.169Z,1010.87
2023-02-23T13:08:24.102Z,1010.83
2023-02-23T13:09:24.179Z,1010.81
2023-02-23T13:10:24.291Z,1010.87
2023-02-23T13:11:24.485Z,1010.80
2023-02-23T13:12:24.221Z,1010.88
2023-02-23T13:13:24.245Z,1010.86
2023-02-23T13:14:24.270Z,1010.83
2023-02-23T13:16:24.375Z,1010.90
2023-02-23T13:17:25.025Z,1010.85
2023-02-23T13:18:24.398Z,1010.90
2023-02-23T13:19:24.407Z,1010.91
2023-02-23T13:20:24.448Z,1010.90
2023-02-23T13:22:24.510Z,1010.92
2023-02-23T13:23:24.824Z,1010.93
2023-02-23T13:24:24.560Z,1010.94
2023-02-23T13:26:24.649Z,1010.94
2023-02-23T13:27:24.652Z,1010.91
2023-02-23T13:28:24.668Z,1010.95
2023-02-23T13:29:25.003Z,1010.98
2023-02-23T13:30:24.729Z,1010.95
2023-02-23T13:31:25.093Z,1010.94
2023-02-23T13:32:24.947Z,1010.96
2023-02-23T13:33:27.508Z,1010.98